createdAt,value
2023-02-19T04:02:38.546Z,9.50
2023-02-19T04:05:18.356Z,9.50
2023-02-19T04:07:50.271Z,9.40
2023-02-19T04:10:18.794Z,9.50
2023-02-19T04:12:51.626Z,9.50
2023-02-19T04:15:24.916Z,9.30
2023-02-19T04:18:00.591Z,9.40
2023-02-19T04:20:32.080Z,9.40
2023-02-19T04:22:59.567Z,9.40
2023-02-19T04:25:29.250Z,9.50
2023-02-19T04:27:56.527Z,9.40
2023-02-19T04:30:23.788Z,9.30
2023-02-19T04:32:51.019Z,9.30
2023-02-19T04:35:18.150Z,9.20
2023-02-19T04:37:45.261Z,9.20
2023-02-19T04:40:12.401Z,9.10
2023-02-19T04:42:39.543Z,9.00
2023-02-19T04:45:07.072Z,8.70
2023-02-19T04:47:34.401Z,8.60
2023-02-19T04:50:01.639Z,8.60
2023-02-19T04:52:28.856Z,8.60
2023-02-19T04:54:55.961Z,8.60
2023-02-19T04:57:23.148Z,8.60
2023-02-19T04:59:50.292Z,8.60
2023-02-19T05:02:17.508Z,8.60
2023-02-19T05:04:44.668Z,8.60
2023-02-19T05:07:12.210Z,8.60
2023-02-19T05:09:39.365Z,8.50
2023-02-19T05:12:06.827Z,8.40
2023-02-19T05:14:33.947Z,8.50
2023-02-19T05:17:01.095Z,8.50
2023-02-19T05:19:28.264Z,8.50
2023-02-19T05:21:55.400Z,8.40
2023-02-19T05:24:24.385Z,8.40
2023-02-19T05:26:51.503Z,8.40
2023-02-19T05:29:18.825Z,8.30
2023-02-19T05:31:46.056Z,8.30
2023-02-19T05:34:13.345Z,8.30
2023-02-19T05:36:40.568Z,8.30
2023-02-19T05:39:11.036Z,8.40
2023-02-19T05:41:39.110Z,8.30
2023-02-19T05:44:06.274Z,8.30
2023-02-19T05:46:33.646Z,8.20
2023-02-19T05:49:01.070Z,8.30
2023-02-19T05:51:28.382Z,8.30
2023-02-19T05:53:57.016Z,8.30
2023-02-19T05:56:50.259Z,8.30
2023-02-19T05:59:20.749Z,8.50
2023-02-19T06:01:49.393Z,8.40
2023-02-19T06:04:19.093Z,8.50
2023-02-19T06:06:47.612Z,8.40
2023-02-19T06:09:14.827Z,8.60
2023-02-19T06:11:43.434Z,8.60
2023-02-19T06:14:13.540Z,8.60
2023-02-19T06:16:41.163Z,8.50
2023-02-19T06:19:08.407Z,8.50
2023-02-19T06:21:35.668Z,8.50
2023-02-19T06:24:09.809Z,8.50
2023-02-19T06:26:37.125Z,8.50
2023-02-19T06:29:04.348Z,8.50
2023-02-19T06:31:31.604Z,8.50
2023-02-19T06:33:58.892Z,8.50
2023-02-19T06:36:26.135Z,8.60
2023-02-19T06:38:53.432Z,8.60
2023-02-19T06:41:20.713Z,8.60
2023-02-19T06:43:48.042Z,8.60
2023-02-19T06:46:15.242Z,8.60
2023-02-19T06:48:44.495Z,8.60
2023-02-19T06:51:14.181Z,8.60
2023-02-19T06:53:41.560Z,8.40
2023-02-19T06:56:25.160Z,8.40
2023-02-19T06:58:57.618Z,8.30
2023-02-19T07:01:24.827Z,8.40
2023-02-19T07:03:52.754Z,8.40
2023-02-19T07:06:24.298Z,8.40
2023-02-19T07:08:52.934Z,8.30
2023-02-19T07:11:20.213Z,8.30
2023-02-19T07:13:47.468Z,8.40
2023-02-19T07:16:15.319Z,8.50
2023-02-19T07:18:42.573Z,8.50
2023-02-19T07:21:12.818Z,8.60
2023-02-19T07:23:41.020Z,8.30
2023-02-19T07:26:16.559Z,8.40
2023-02-19T07:28:53.079Z,8.30
2023-02-19T07:31:22.532Z,8.50
2023-02-19T07:33:50.416Z,8.40
2023-02-19T07:36:18.753Z,8.40
2023-02-19T07:38:46.186Z,8.40
2023-02-19T07:41:13.911Z,8.40
2023-02-19T07:43:41.969Z,8.40
2023-02-19T07:46:12.136Z,8.50
2023-02-19T07:48:40.780Z,8.50
2023-02-19T07:51:12.265Z,8.70
2023-02-19T07:53:39.862Z,8.70
2023-02-19T07:56:08.531Z,8.60
2023-02-19T07:58:36.118Z,8.70
2023-02-19T08:01:10.869Z,8.70
2023-02-19T08:03:38.944Z,8.70
2023-02-19T08:06:06.800Z,8.80
2023-02-19T08:08:34.308Z,8.70
2023-02-19T08:11:21.739Z,8.70
2023-02-19T08:13:53.252Z,8.80
2023-02-19T08:16:33.067Z,8.90
2023-02-19T08:19:04.518Z,9.00
2023-02-19T08:21:34.312Z,9.10
2023-02-19T08:24:01.693Z,9.10
2023-02-19T08:26:28.827Z,9.20
2023-02-19T08:28:55.964Z,9.20
2023-02-19T08:31:23.220Z,9.10
2023-02-19T08:33:50.561Z,9.10
2023-02-19T08:36:17.806Z,9.40
2023-02-19T08:38:45.112Z,9.50
2023-02-19T08:41:14.529Z,9.70
2023-02-19T08:43:42.608Z,9.70
2023-02-19T08:46:11.317Z,9.70
2023-02-19T08:48:39.413Z,9.70
2023-02-19T08:51:10.533Z,9.70
2023-02-19T08:53:39.325Z,9.80
2023-02-19T08:56:11.843Z,9.80
2023-02-19T08:58:40.020Z,9.80
2023-02-19T09:01:16.567Z,9.80
2023-02-19T09:03:43.815Z,10.00
2023-02-19T09:06:18.200Z,9.90
2023-02-19T09:08:46.010Z,10.00
2023-02-19T09:11:13.944Z,9.90
2023-02-19T09:13:41.478Z,10.00
2023-02-19T09:16:08.849Z,10.20
2023-02-19T09:18:36.326Z,10.10
2023-02-19T09:21:05.545Z,10.30
2023-02-19T09:23:34.513Z,10.50
2023-02-19T09:26:03.986Z,10.60
2023-02-19T09:28:31.151Z,10.30
2023-02-19T09:31:03.499Z,10.40
2023-02-19T09:33:30.685Z,10.30
2023-02-19T09:36:00.807Z,10.30
2023-02-19T09:38:29.420Z,10.50
2023-02-19T09:41:05.825Z,10.60
2023-02-19T09:43:33.638Z,10.60
2023-02-19T09:46:15.691Z,10.50
2023-02-19T09:48:42.847Z,10.40
2023-02-19T09:51:12.120Z,10.60
2023-02-19T09:53:46.600Z,10.70
2023-02-19T09:56:13.800Z,10.70
2023-02-19T09:58:52.905Z,10.60
2023-02-19T10:01:21.331Z,10.90
2023-02-19T10:03:49.225Z,10.80
2023-02-19T10:06:16.346Z,10.80
2023-02-19T10:08:46.502Z,10.60
2023-02-19T10:11:15.427Z,10.30
2023-02-19T10:14:09.468Z,10.40
2023-02-19T10:16:42.151Z,10.60
2023-02-19T10:19:13.643Z,10.60
2023-02-19T10:21:41.971Z,10.70
2023-02-19T10:24:16.921Z,10.80
2023-02-19T10:26:44.136Z,11.10
2023-02-19T10:29:11.536Z,11.10
2023-02-19T10:31:38.811Z,11.00
2023-02-19T10:34:22.332Z,10.50
2023-02-19T10:36:52.236Z,10.20
2023-02-19T10:39:22.248Z,10.30
2023-02-19T10:41:56.368Z,10.40
2023-02-19T10:44:42.522Z,10.30
2023-02-19T10:47:17.819Z,10.20
2023-02-19T10:49:48.643Z,10.30
2023-02-19T10:52:24.062Z,10.70
2023-02-19T10:55:13.850Z,10.60
2023-02-19T10:57:41.042Z,10.40
2023-02-19T11:00:26.914Z,10.50
2023-02-19T11:03:14.853Z,10.70
2023-02-19T11:06:02.028Z,10.50
2023-02-19T11:08:30.092Z,10.40
2023-02-19T11:10:57.453Z,10.60
2023-02-19T11:13:32.259Z,10.30
2023-02-19T11:16:00.391Z,10.40
2023-02-19T11:18:31.204Z,10.70
2023-02-19T11:21:01.631Z,10.80
2023-02-19T11:23:44.920Z,10.70
2023-02-19T11:26:21.673Z,10.80
2023-02-19T11:29:00.384Z,10.70
2023-02-19T11:31:31.931Z,10.50
2023-02-19T11:34:14.340Z,10.60
2023-02-19T11:36:42.606Z,10.90
2023-02-19T11:39:15.377Z,11.00
2023-02-19T11:42:24.682Z,11.00
2023-02-19T11:45:28.799Z,10.90
2023-02-19T11:48:11.416Z,11.00
2023-02-19T11:50:48.415Z,10.90
2023-02-19T11:53:25.813Z,10.90
2023-02-19T11:56:20.587Z,10.80
2023-02-19T11:59:05.518Z,10.80
2023-02-19T12:02:19.173Z,10.70
2023-02-19T12:05:15.453Z,10.70
2023-02-19T12:08:23.394Z,10.80
2023-02-19T12:11:29.625Z,10.60
2023-02-19T12:14:06.880Z,10.90
2023-02-19T12:16:58.374Z,10.90
2023-02-19T12:19:34.400Z,10.60
2023-02-19T12:22:13.342Z,10.80
2023-02-19T12:25:17.605Z,10.80
2023-02-19T12:28:18.299Z,10.90
2023-02-19T12:31:28.484Z,10.60
2023-02-19T12:34:22.505Z,10.60
2023-02-19T12:37:11.382Z,10.50
2023-02-19T12:39:41.680Z,10.30
2023-02-19T12:42:36.087Z,10.30
2023-02-19T12:45:20.234Z,10.50
2023-02-19T12:48:14.446Z,10.50
2023-02-19T12:50:43.743Z,10.50
2023-02-19T12:53:33.791Z,10.60
2023-02-19T12:56:05.775Z,10.40
2023-02-19T12:58:44.705Z,10.50
2023-02-19T13:01:18.907Z,10.60
2023-02-19T13:04:16.150Z,10.60
2023-02-19T13:06:52.978Z,10.70
2023-02-19T13:09:47.004Z,10.70
2023-02-19T13:12:31.211Z,10.40
2023-02-19T13:15:02.673Z,10.40
2023-02-19T13:17:32.926Z,10.40
2023-02-19T13:20:27.148Z,10.20
2023-02-19T13:23:31.978Z,10.20
2023-02-19T13:26:30.469Z,10.10
2023-02-19T13:29:25.524Z,9.80
2023-02-19T13:32:06.895Z,9.80
2023-02-19T13:34:55.098Z,9.50
2023-02-19T13:37:23.993Z,9.50
2023-02-19T13:39:53.856Z,9.30
2023-02-19T13:42:25.450Z,9.30
2023-02-19T13:44:57.713Z,9.10
2023-02-19T13:47:55.141Z,9.10
2023-02-19T13:50:25.480Z,9.20
2023-02-19T13:52:58.093Z,9.10
2023-02-19T13:55:44.321Z,9.10
2023-02-19T13:58:32.622Z,9.20
2023-02-19T14:01:01.766Z,9.30
2023-02-19T14:03:37.712Z,9.40
2023-02-19T14:06:08.104Z,9.40
2023-02-19T14:08:49.980Z,9.40
2023-02-19T14:11:18.665Z,9.60
2023-02-19T14:13:51.721Z,9.80
2023-02-19T14:16:39.854Z,9.90
2023-02-19T14:19:42.100Z,10.00
2023-02-19T14:22:50.094Z,9.70
2023-02-19T14:25:32.023Z,9.70
2023-02-19T14:28:16.706Z,9.60
2023-02-19T14:30:47.317Z,9.60
2023-02-19T14:33:18.229Z,9.60
2023-02-19T14:35:48.848Z,9.70
2023-02-19T14:38:36.792Z,9.60
2023-02-19T14:41:04.582Z,9.70
2023-02-19T14:43:33.848Z,9.90
2023-02-19T14:46:07.545Z,9.90
2023-02-19T14:48:39.569Z,9.90
2023-02-19T14:51:32.376Z,9.90
2023-02-19T14:54:04.345Z,9.80
2023-02-19T14:56:34.755Z,9.70
2023-02-19T14:59:14.209Z,9.60
2023-02-19T15:01:41.469Z,9.60
2023-02-19T15:04:23.020Z,9.70
2023-02-19T15:06:53.003Z,9.80
2023-02-19T15:09:21.908Z,9.80
2023-02-19T15:11:49.452Z,9.70
2023-02-19T15:14:22.536Z,9.70
2023-02-19T15:16:55.318Z,9.60
2023-02-19T15:19:23.123Z,9.60
2023-02-19T15:21:50.731Z,9.70
2023-02-19T15:24:19.069Z,9.60
2023-02-19T15:26:51.861Z,9.40
2023-02-19T15:29:24.187Z,9.50
2023-02-19T15:31:57.261Z,9.60
2023-02-19T15:34:26.069Z,9.50
2023-02-19T15:37:01.720Z,9.50
2023-02-19T15:39:40.279Z,9.60
2023-02-19T15:42:11.032Z,9.70
2023-02-19T15:44:41.628Z,9.60
2023-02-19T15:47:14.689Z,9.70
2023-02-19T15:49:51.110Z,9.70
2023-02-19T15:52:28.866Z,9.60
2023-02-19T15:55:07.326Z,9.50
2023-02-19T15:57:39.086Z,9.50
2023-02-19T16:00:16.963Z,9.60
2023-02-19T16:02:45.415Z,9.50
2023-02-19T16:05:24.229Z,9.50
2023-02-19T16:08:15.778Z,9.50
2023-02-19T16:10:57.789Z,9.50
2023-02-19T16:13:30.335Z,9.50
2023-02-19T16:16:15.412Z,9.40
2023-02-19T16:18:50.842Z,9.40
2023-02-19T16:21:24.385Z,9.40
2023-02-19T16:24:17.755Z,9.50
2023-02-19T16:26:46.046Z,9.50
2023-02-19T16:29:25.733Z,9.30
2023-02-19T16:32:00.682Z,9.20
2023-02-19T16:34:34.374Z,9.10
2023-02-19T16:37:02.781Z,9.10
2023-02-19T16:39:30.474Z,9.10
2023-02-19T16:42:02.019Z,9.00
2023-02-19T16:44:35.565Z,9.10
2023-02-19T16:47:04.720Z,9.10
2023-02-19T16:49:32.237Z,9.20
2023-02-19T16:52:02.622Z,9.00
2023-02-19T16:54:31.246Z,9.00
2023-02-19T16:56:58.405Z,8.90
2023-02-19T16:59:25.571Z,8.90
2023-02-19T17:01:52.753Z,8.90
2023-02-19T17:04:19.963Z,9.10
2023-02-19T17:06:47.458Z,9.20
2023-02-19T17:09:14.649Z,9.20
2023-02-19T17:11:41.988Z,9.30
2023-02-19T17:14:09.317Z,9.30
2023-02-19T17:16:40.269Z,9.40
2023-02-19T17:19:18.639Z,9.30
2023-02-19T17:21:46.749Z,9.30
2023-02-19T17:24:14.283Z,9.30
2023-02-19T17:26:41.798Z,9.20
2023-02-19T17:29:14.041Z,9.20
2023-02-19T17:31:41.733Z,9.10
2023-02-19T17:34:09.060Z,9.10
2023-02-19T17:36:37.983Z,9.10
2023-02-19T17:39:11.908Z,9.00
2023-02-19T17:41:39.099Z,9.10
2023-02-19T17:44:06.418Z,9.10
2023-02-19T17:46:34.594Z,9.10
2023-02-19T17:49:01.876Z,9.00
2023-02-19T17:51:29.085Z,9.00
2023-02-19T17:53:56.289Z,8.90
2023-02-19T17:56:26.137Z,8.80
2023-02-19T17:58:54.497Z,8.60
2023-02-19T18:01:22.134Z,8.70
2023-02-19T18:03:49.521Z,8.70
2023-02-19T18:06:16.932Z,8.70
2023-02-19T18:08:52.386Z,8.70
2023-02-19T18:11:22.023Z,8.70
2023-02-19T18:13:50.496Z,8.70
2023-02-19T18:16:18.107Z,8.80
2023-02-19T18:18:45.629Z,8.80
2023-02-19T18:21:13.839Z,8.80
2023-02-19T18:23:41.911Z,8.70
2023-02-19T18:26:10.927Z,8.70
2023-02-19T18:28:38.748Z,8.70
2023-02-19T18:31:06.141Z,8.70
2023-02-19T18:33:34.894Z,8.60
2023-02-19T18:36:02.581Z,8.50
2023-02-19T18:38:29.868Z,8.50
2023-02-19T18:40:58.750Z,8.40
2023-02-19T18:43:26.429Z,8.50
2023-02-19T18:45:53.822Z,8.50
2023-02-19T18:48:21.086Z,8.50
2023-02-19T18:50:48.274Z,8.40
2023-02-19T18:53:15.576Z,8.40
2023-02-19T18:55:42.742Z,8.50
2023-02-19T18:58:09.859Z,8.50
2023-02-19T19:00:37.085Z,8.60
2023-02-19T19:03:05.052Z,8.60
2023-02-19T19:05:32.397Z,8.60
2023-02-19T19:08:01.715Z,8.50
2023-02-19T19:10:30.202Z,8.50
2023-02-19T19:12:58.482Z,8.60
2023-02-19T19:15:26.071Z,8.60
2023-02-19T19:17:53.517Z,8.50
2023-02-19T19:20:22.498Z,8.60
2023-02-19T19:22:51.849Z,8.60
2023-02-19T19:25:20.044Z,8.50
2023-02-19T19:27:47.505Z,8.50
2023-02-19T19:30:14.956Z,8.50
2023-02-19T19:32:42.373Z,8.50
2023-02-19T19:35:09.823Z,8.50
2023-02-19T19:37:37.092Z,8.60
2023-02-19T19:40:04.763Z,8.50
2023-02-19T19:42:32.053Z,8.50
2023-02-19T19:44:59.381Z,8.40
2023-02-19T19:47:26.784Z,8.50
2023-02-19T19:49:53.998Z,8.40
2023-02-19T19:52:21.436Z,8.40
2023-02-19T19:54:53.779Z,8.40
2023-02-19T19:57:21.422Z,8.40
2023-02-19T19:59:50.994Z,8.50
2023-02-19T20:02:18.932Z,8.50
2023-02-19T20:04:46.320Z,8.40
2023-02-19T20:07:13.593Z,8.30
2023-02-19T20:09:40.745Z,8.40
2023-02-19T20:12:08.628Z,8.50
2023-02-19T20:14:35.884Z,8.40
2023-02-19T20:17:03.027Z,8.30
2023-02-19T20:19:30.179Z,8.30
2023-02-19T20:21:57.331Z,8.30
2023-02-19T20:24:28.808Z,8.40
2023-02-19T20:26:59.205Z,8.40
2023-02-19T20:29:28.688Z,8.40
2023-02-19T20:31:59.816Z,8.40
2023-02-19T20:34:27.388Z,8.40
2023-02-19T20:36:55.006Z,8.40
2023-02-19T20:39:22.417Z,8.40
2023-02-19T20:41:51.138Z,8.40
2023-02-19T20:44:19.276Z,8.40
2023-02-19T20:46:51.264Z,8.40
2023-02-19T20:49:20.376Z,8.30
2023-02-19T20:51:54.745Z,8.20
2023-02-19T20:54:25.485Z,8.30
2023-02-19T20:56:54.979Z,8.20
2023-02-19T20:59:24.962Z,8.20
2023-02-19T21:01:52.195Z,8.20
2023-02-19T21:04:19.760Z,8.10
2023-02-19T21:06:47.066Z,8.20
2023-02-19T21:09:14.230Z,8.20
2023-02-19T21:11:42.514Z,8.30
2023-02-19T21:14:09.914Z,8.30
2023-02-19T21:16:37.298Z,8.30
2023-02-19T21:19:04.742Z,8.30
2023-02-19T21:21:34.345Z,8.30
2023-02-19T21:24:02.532Z,8.30
2023-02-19T21:26:35.414Z,8.30
2023-02-19T21:29:03.892Z,8.20
2023-02-19T21:31:46.271Z,8.20
2023-02-19T21:34:16.458Z,8.20
2023-02-19T21:36:44.151Z,8.20
2023-02-19T21:39:13.437Z,8.20
2023-02-19T21:41:40.756Z,8.30
2023-02-19T21:44:07.930Z,8.20
2023-02-19T21:46:35.103Z,8.10
2023-02-19T21:49:03.690Z,8.10
2023-02-19T21:51:32.624Z,8.10
2023-02-19T21:54:00.614Z,8.20
2023-02-19T21:56:34.485Z,8.20
2023-02-19T21:59:03.385Z,8.10
